createdAt,value
2022-09-15T00:02:01.460Z,1.50
2022-09-15T00:04:28.585Z,1.20
2022-09-15T00:06:55.698Z,1.37
2022-09-15T00:09:22.697Z,1.37
2022-09-15T00:12:02.455Z,1.40
2022-09-15T00:14:29.452Z,1.70
2022-09-15T00:16:56.446Z,1.33
2022-09-15T00:19:23.507Z,1.70
2022-09-15T00:21:50.452Z,1.67
2022-09-15T00:24:17.592Z,1.40
2022-09-15T00:26:44.593Z,1.73
2022-09-15T00:29:12.950Z,1.53
2022-09-15T00:31:40.092Z,1.40
2022-09-15T00:34:07.369Z,1.60
2022-09-15T00:36:34.825Z,1.47
2022-09-15T00:39:02.101Z,1.50
2022-09-15T00:41:29.697Z,1.40
2022-09-15T00:44:44.714Z,1.50
2022-09-15T00:47:19.977Z,1.07
2022-09-15T00:49:52.485Z,1.13
2022-09-15T00:52:34.639Z,1.20
2022-09-15T00:55:10.407Z,1.70
2022-09-15T00:57:53.896Z,1.70
2022-09-15T01:00:24.077Z,1.10
2022-09-15T01:02:51.522Z,1.50
2022-09-15T01:05:21.653Z,1.33
2022-09-15T01:08:17.209Z,1.70
2022-09-15T01:10:44.970Z,1.20
2022-09-15T01:13:14.401Z,1.53
2022-09-15T01:16:33.062Z,1.50
2022-09-15T01:19:59.467Z,1.70
2022-09-15T01:23:12.372Z,1.27
2022-09-15T01:26:21.142Z,1.60
2022-09-15T01:29:24.852Z,1.33
2022-09-15T01:32:28.650Z,1.60
2022-09-15T01:35:07.326Z,1.33
2022-09-15T01:37:39.661Z,1.30
2022-09-15T01:40:09.241Z,1.40
2022-09-15T01:42:37.636Z,1.40
2022-09-15T01:45:11.436Z,1.40
2022-09-15T01:47:39.953Z,1.67
2022-09-15T01:50:11.741Z,1.30
2022-09-15T01:52:43.193Z,1.20
2022-09-15T01:55:20.314Z,1.20
2022-09-15T01:57:47.396Z,1.07
2022-09-15T02:00:14.787Z,1.30
2022-09-15T02:02:48.251Z,1.20
2022-09-15T02:05:48.022Z,1.00
2022-09-15T02:08:28.583Z,1.03
2022-09-15T02:11:18.471Z,1.00
2022-09-15T02:14:10.630Z,1.00
2022-09-15T02:16:41.760Z,0.80
2022-09-15T02:19:31.308Z,1.17
2022-09-15T02:22:17.787Z,1.37
2022-09-15T02:24:50.258Z,0.90
2022-09-15T02:27:24.758Z,0.80
2022-09-15T02:29:55.418Z,0.90
2022-09-15T02:32:24.260Z,1.00
2022-09-15T02:34:52.483Z,0.90
2022-09-15T02:37:21.574Z,0.97
2022-09-15T02:39:51.838Z,1.00
2022-09-15T02:42:29.162Z,0.90
2022-09-15T02:44:56.905Z,1.00
2022-09-15T02:47:25.140Z,0.97
2022-09-15T02:49:52.949Z,0.90
2022-09-15T02:52:20.503Z,1.00
2022-09-15T02:54:48.203Z,1.10
2022-09-15T02:57:15.693Z,0.90
2022-09-15T03:00:01.724Z,1.00
2022-09-15T03:02:29.863Z,1.07
2022-09-15T03:04:57.300Z,0.90
2022-09-15T03:07:25.038Z,1.30
2022-09-15T03:09:52.458Z,1.23
2022-09-15T03:12:19.809Z,0.97
2022-09-15T03:14:47.356Z,0.90
2022-09-15T03:17:14.727Z,1.20
2022-09-15T03:19:42.271Z,1.20
2022-09-15T03:22:10.490Z,1.13
2022-09-15T03:24:38.622Z,1.10
2022-09-15T03:27:06.280Z,1.00
2022-09-15T03:29:33.624Z,0.80
2022-09-15T03:32:01.083Z,1.00
2022-09-15T03:34:28.451Z,1.20
2022-09-15T03:36:55.831Z,1.40
2022-09-15T03:39:23.243Z,1.63
2022-09-15T03:41:50.608Z,1.30
2022-09-15T03:44:17.617Z,1.20
2022-09-15T03:46:45.016Z,1.10
2022-09-15T03:49:12.771Z,1.00
2022-09-15T03:51:39.769Z,1.50
2022-09-15T03:54:06.823Z,1.30
2022-09-15T03:56:33.826Z,1.20
2022-09-15T03:59:02.577Z,1.77
2022-09-15T04:01:31.052Z,1.30
2022-09-15T04:03:58.594Z,1.50
2022-09-15T04:06:26.961Z,1.57
2022-09-15T04:08:54.879Z,1.50
2022-09-15T04:11:22.810Z,1.43
2022-09-15T04:13:49.964Z,1.93
2022-09-15T04:16:19.105Z,1.33
2022-09-15T04:18:46.773Z,1.60
2022-09-15T04:21:16.083Z,1.40
2022-09-15T04:23:43.888Z,1.77
2022-09-15T04:26:20.308Z,1.67
2022-09-15T04:28:48.058Z,1.50
2022-09-15T04:31:16.284Z,1.27
2022-09-15T04:33:44.412Z,1.27
2022-09-15T04:36:17.352Z,1.00
2022-09-15T04:38:45.029Z,1.40
2022-09-15T04:41:12.927Z,1.57
2022-09-15T04:43:40.666Z,1.60
2022-09-15T04:46:07.946Z,1.40
2022-09-15T04:48:35.538Z,1.30
2022-09-15T04:51:07.393Z,1.20
2022-09-15T04:53:35.769Z,1.20
2022-09-15T04:56:12.405Z,1.30
2022-09-15T04:58:40.797Z,1.30
2022-09-15T05:01:14.179Z,1.37
2022-09-15T05:03:42.408Z,1.20
2022-09-15T05:06:12.067Z,1.50
2022-09-15T05:08:39.316Z,2.00
2022-09-15T05:11:09.920Z,1.97
2022-09-15T05:13:38.179Z,1.90
2022-09-15T05:16:13.621Z,2.23
2022-09-15T05:18:42.697Z,1.87
2022-09-15T05:21:11.630Z,1.70
2022-09-15T05:23:39.090Z,1.70
2022-09-15T05:26:15.392Z,2.57
2022-09-15T05:28:42.769Z,2.03
2022-09-15T05:31:13.285Z,3.20
2022-09-15T05:33:40.471Z,1.53
2022-09-15T05:36:07.958Z,2.00
2022-09-15T05:38:35.054Z,1.53
2022-09-15T05:41:07.459Z,3.37
2022-09-15T05:43:36.000Z,2.80
2022-09-15T05:46:04.068Z,2.67
2022-09-15T05:48:31.340Z,3.10
2022-09-15T05:50:58.793Z,5.30
2022-09-15T05:53:26.507Z,2.60
2022-09-15T05:56:01.546Z,7.23
2022-09-15T05:58:28.914Z,2.27
2022-09-15T06:00:56.122Z,4.50
2022-09-15T06:03:28.740Z,5.30
2022-09-15T06:06:02.261Z,4.10
2022-09-15T06:08:37.437Z,5.20
2022-09-15T06:11:15.927Z,2.30
2022-09-15T06:13:43.640Z,4.50
2022-09-15T06:16:13.944Z,3.47
2022-09-15T06:18:41.902Z,3.60
2022-09-15T06:21:11.830Z,2.50
2022-09-15T06:23:39.414Z,5.57
2022-09-15T06:26:15.755Z,7.93
2022-09-15T06:28:48.584Z,2.53
2022-09-15T06:31:16.288Z,2.33
2022-09-15T06:33:45.519Z,2.43
2022-09-15T06:36:13.766Z,2.37
2022-09-15T06:38:41.795Z,3.00
2022-09-15T06:41:09.742Z,2.13
2022-09-15T06:43:36.807Z,1.73
2022-09-15T06:46:06.315Z,2.50
2022-09-15T06:48:33.730Z,2.03
2022-09-15T06:51:01.563Z,2.10
2022-09-15T06:53:33.451Z,2.10
2022-09-15T06:56:09.533Z,2.20
2022-09-15T06:58:38.173Z,3.10
2022-09-15T07:01:10.797Z,2.50
2022-09-15T07:03:39.165Z,2.10
2022-09-15T07:06:08.064Z,2.63
2022-09-15T07:08:35.539Z,2.33
2022-09-15T07:11:02.621Z,2.20
2022-09-15T07:13:29.934Z,2.30
2022-09-15T07:15:59.215Z,2.57
2022-09-15T07:18:27.151Z,2.87
2022-09-15T07:20:59.560Z,2.93
2022-09-15T07:23:26.804Z,3.53
2022-09-15T07:26:04.022Z,3.00
2022-09-15T07:28:31.452Z,3.97
2022-09-15T07:30:58.836Z,3.90
2022-09-15T07:33:26.310Z,3.20
2022-09-15T07:35:53.700Z,3.00
2022-09-15T07:38:21.132Z,3.40
2022-09-15T07:40:49.259Z,3.13
2022-09-15T07:43:16.809Z,2.83
2022-09-15T07:45:44.721Z,3.57
2022-09-15T07:48:12.269Z,2.97
2022-09-15T07:50:39.704Z,2.93
2022-09-15T07:53:07.314Z,2.70
2022-09-15T07:55:34.419Z,2.60
2022-09-15T07:58:01.863Z,2.87
2022-09-15T08:00:29.473Z,2.53
2022-09-15T08:02:56.992Z,2.20
2022-09-15T08:05:28.477Z,2.37
2022-09-15T08:07:56.289Z,2.60
2022-09-15T08:10:25.348Z,2.53
2022-09-15T08:12:53.224Z,2.33
2022-09-15T08:15:21.149Z,2.43
2022-09-15T08:17:48.633Z,2.47
2022-09-15T08:20:16.111Z,2.30
2022-09-15T08:22:45.594Z,3.00
2022-09-15T08:25:13.383Z,2.90
2022-09-15T08:27:40.865Z,2.50
2022-09-15T08:30:08.690Z,2.50
2022-09-15T08:32:35.731Z,2.17
2022-09-15T08:35:02.727Z,2.60
2022-09-15T08:37:29.749Z,2.33
2022-09-15T08:39:57.346Z,1.70
2022-09-15T08:42:26.955Z,1.70
2022-09-15T08:44:58.582Z,1.90
2022-09-15T08:47:34.834Z,1.90
2022-09-15T08:50:34.630Z,1.67
2022-09-15T08:53:09.842Z,2.17
2022-09-15T08:55:50.859Z,1.93
2022-09-15T08:58:19.855Z,2.07
2022-09-15T09:00:48.934Z,1.50
2022-09-15T09:04:17.525Z,1.63
2022-09-15T09:07:18.046Z,1.80
2022-09-15T09:10:19.529Z,1.70
2022-09-15T09:13:19.967Z,2.27
2022-09-15T09:16:21.958Z,1.50
2022-09-15T09:19:17.130Z,1.80
2022-09-15T09:22:02.024Z,1.50
2022-09-15T09:24:40.301Z,1.90
2022-09-15T09:27:18.373Z,1.90
2022-09-15T09:29:50.018Z,1.70
2022-09-15T09:32:25.042Z,1.60
2022-09-15T09:35:09.257Z,1.80
2022-09-15T09:37:36.430Z,1.50
2022-09-15T09:40:03.702Z,1.90
2022-09-15T09:42:34.796Z,1.60
2022-09-15T09:45:01.933Z,1.67
2022-09-15T09:47:30.094Z,1.80
2022-09-15T09:49:57.222Z,2.10
2022-09-15T09:52:38.761Z,1.70
2022-09-15T09:55:23.816Z,1.43
2022-09-15T09:57:51.495Z,1.60
2022-09-15T10:00:39.310Z,1.50
2022-09-15T10:03:29.432Z,1.53
2022-09-15T10:06:06.463Z,1.47
2022-09-15T10:08:36.483Z,1.40
2022-09-15T10:11:06.802Z,1.40
2022-09-15T10:13:49.726Z,1.43
2022-09-15T10:16:18.735Z,1.30
2022-09-15T10:18:50.971Z,1.20
2022-09-15T10:21:24.995Z,1.20
2022-09-15T10:23:52.441Z,1.40
2022-09-15T10:26:39.402Z,1.50
2022-09-15T10:29:18.272Z,1.30
2022-09-15T10:31:46.765Z,3.10
2022-09-15T10:34:27.960Z,1.27
2022-09-15T10:37:01.725Z,1.70
2022-09-15T10:39:36.947Z,1.57
2022-09-15T10:42:23.020Z,1.50
2022-09-15T10:45:22.695Z,1.87
2022-09-15T10:48:17.928Z,1.60
2022-09-15T10:51:08.419Z,1.60
2022-09-15T10:54:03.246Z,1.37
2022-09-15T10:56:42.978Z,1.70
2022-09-15T10:59:54.652Z,1.47
2022-09-15T11:03:02.221Z,1.20
2022-09-15T11:06:21.393Z,1.30
2022-09-15T11:09:17.500Z,1.50
2022-09-15T11:12:29.344Z,1.40
2022-09-15T11:30:24.956Z,1.70
2022-09-15T11:33:07.615Z,1.60
2022-09-15T11:41:56.671Z,1.60
2022-09-15T11:44:40.018Z,1.70
2022-09-15T11:47:31.904Z,1.90
2022-09-15T11:50:18.178Z,2.20
2022-09-15T11:53:27.737Z,1.73
2022-09-15T11:56:09.681Z,1.73
2022-09-15T11:59:03.816Z,2.30
2022-09-15T12:01:59.420Z,2.00
2022-09-15T12:04:33.455Z,2.07
2022-09-15T12:07:28.925Z,2.40
2022-09-15T12:10:04.388Z,2.03
2022-09-15T12:12:32.595Z,2.20
2022-09-15T12:15:00.153Z,2.00
2022-09-15T12:17:35.752Z,1.70
2022-09-15T12:20:13.008Z,1.77
2022-09-15T12:23:14.614Z,1.70
2022-09-15T12:26:20.873Z,2.23
2022-09-15T12:29:02.620Z,2.07
2022-09-15T12:31:38.069Z,1.30
2022-09-15T12:34:45.880Z,1.70
2022-09-15T12:37:16.276Z,1.30
2022-09-15T12:39:45.335Z,1.60
2022-09-15T12:42:25.311Z,2.00
2022-09-15T12:44:58.993Z,1.33
2022-09-15T12:47:49.272Z,1.60
2022-09-15T12:50:28.410Z,1.50
2022-09-15T12:52:58.381Z,1.63
2022-09-15T12:55:27.558Z,1.63
2022-09-15T12:58:00.359Z,2.00
2022-09-15T13:00:31.845Z,1.67
2022-09-15T13:02:59.562Z,1.80
2022-09-15T13:06:17.054Z,1.70
2022-09-15T13:09:14.322Z,1.50
2022-09-15T13:11:47.668Z,1.63
2022-09-15T13:14:29.171Z,1.57
2022-09-15T13:17:16.722Z,1.60
2022-09-15T13:19:50.757Z,1.60
2022-09-15T13:22:41.428Z,1.80
2022-09-15T13:25:29.154Z,2.27
2022-09-15T13:28:02.347Z,2.07
2022-09-15T13:31:16.897Z,2.40
2022-09-15T13:40:59.095Z,2.23
2022-09-15T13:44:25.859Z,1.63
2022-09-15T13:47:30.333Z,1.70
2022-09-15T13:50:45.516Z,2.30
2022-09-15T13:53:24.728Z,2.53
2022-09-15T13:55:54.726Z,2.83
2022-09-15T14:01:12.483Z,2.07
2022-09-15T14:03:49.156Z,1.90
2022-09-15T14:06:24.395Z,1.80
2022-09-15T14:08:55.118Z,2.17
2022-09-15T14:11:24.543Z,1.60
2022-09-15T14:13:52.317Z,1.83
2022-09-15T14:16:25.164Z,2.50
2022-09-15T14:18:54.172Z,2.73
2022-09-15T14:21:23.361Z,2.40
2022-09-15T14:23:53.129Z,2.50
2022-09-15T14:26:24.994Z,2.77
2022-09-15T14:29:04.145Z,1.90
2022-09-15T14:31:42.800Z,1.50
2022-09-15T14:34:21.545Z,1.50
2022-09-15T14:37:03.340Z,1.87
2022-09-15T14:39:30.819Z,1.63
2022-09-15T14:47:28.726Z,2.40
2022-09-15T14:50:32.551Z,2.27
2022-09-15T14:53:06.909Z,2.20
2022-09-15T14:55:57.111Z,2.13
2022-09-15T14:58:30.553Z,2.03
2022-09-15T15:01:28.116Z,1.53
2022-09-15T15:04:38.372Z,1.70
2022-09-15T15:07:30.457Z,2.57
2022-09-15T15:10:25.468Z,1.80
2022-09-15T15:13:08.939Z,2.47
2022-09-15T15:15:38.753Z,2.97
2022-09-15T15:18:30.995Z,2.30
2022-09-15T15:20:59.225Z,2.60
2022-09-15T15:23:27.141Z,2.30
2022-09-15T15:26:14.603Z,2.60
2022-09-15T15:28:41.896Z,2.67
2022-09-15T15:31:38.527Z,2.50
2022-09-15T15:34:19.725Z,2.73
2022-09-15T15:36:47.252Z,2.93
2022-09-15T15:39:25.668Z,3.30
2022-09-15T15:42:05.179Z,3.10
2022-09-15T15:44:32.965Z,2.50
2022-09-15T15:47:25.886Z,2.07
2022-09-15T15:50:19.606Z,2.10
2022-09-15T15:52:50.540Z,1.50
2022-09-15T15:55:26.912Z,2.10
2022-09-15T15:57:55.521Z,2.10
2022-09-15T16:00:32.829Z,1.90
2022-09-15T16:03:00.015Z,2.50
2022-09-15T16:05:29.262Z,1.97
2022-09-15T16:07:59.376Z,1.57
2022-09-15T16:10:30.673Z,2.00
2022-09-15T16:12:57.741Z,1.67
2022-09-15T16:15:24.771Z,1.80
2022-09-15T16:17:51.885Z,1.60
2022-09-15T16:20:24.599Z,1.77
2022-09-15T16:22:52.397Z,2.27
2022-09-15T16:25:36.816Z,2.10
2022-09-15T16:28:04.769Z,2.20
2022-09-15T16:30:32.475Z,1.77
2022-09-15T16:32:59.745Z,2.00
2022-09-15T16:35:39.853Z,2.00
2022-09-15T16:38:08.427Z,1.70
2022-09-15T16:40:37.630Z,1.70
2022-09-15T16:43:09.269Z,2.20
2022-09-15T16:45:40.588Z,1.90
2022-09-15T16:48:09.643Z,1.60
2022-09-15T16:50:39.809Z,1.57
2022-09-15T16:53:21.531Z,2.00
2022-09-15T16:55:53.477Z,1.63
2022-09-15T16:58:22.238Z,1.93
2022-09-15T17:00:51.680Z,2.00
2022-09-15T17:03:21.268Z,1.60
2022-09-15T17:05:50.324Z,1.47
2022-09-15T17:08:19.713Z,1.60
2022-09-15T17:10:48.422Z,1.80
2022-09-15T17:13:23.050Z,1.40
2022-09-15T17:15:54.221Z,1.57
2022-09-15T17:18:22.051Z,1.80
2022-09-15T17:20:50.666Z,1.63
2022-09-15T17:23:26.130Z,1.30
2022-09-15T17:25:59.125Z,1.93
2022-09-15T17:28:29.245Z,1.60
2022-09-15T17:31:02.469Z,1.60
2022-09-15T17:33:31.280Z,1.73
2022-09-15T17:35:59.751Z,1.70
2022-09-15T17:38:27.264Z,2.30
2022-09-15T17:40:55.552Z,2.13
2022-09-15T17:43:28.273Z,1.80
2022-09-15T17:45:55.346Z,1.80
2022-09-15T17:48:23.108Z,1.60
2022-09-15T17:50:50.649Z,1.80
2022-09-15T17:53:26.920Z,2.10
2022-09-15T17:55:55.619Z,1.67
2022-09-15T17:58:24.984Z,1.97
2022-09-15T18:00:52.697Z,1.90
2022-09-15T18:03:28.238Z,1.80
2022-09-15T18:06:00.027Z,1.60
2022-09-15T18:08:27.946Z,1.77
2022-09-15T18:10:55.297Z,1.77
2022-09-15T18:13:26.598Z,1.47
2022-09-15T18:15:54.574Z,2.00
2022-09-15T18:18:26.711Z,1.47
2022-09-15T18:20:55.927Z,2.00
2022-09-15T18:23:25.312Z,2.13
2022-09-15T18:25:52.765Z,1.67
2022-09-15T18:28:19.928Z,1.73
2022-09-15T18:30:49.369Z,2.00
2022-09-15T18:33:22.040Z,1.53
2022-09-15T18:35:51.183Z,1.60
2022-09-15T18:38:18.843Z,1.87
2022-09-15T18:40:55.528Z,1.50
2022-09-15T18:43:25.288Z,1.30
2022-09-15T18:45:55.137Z,1.57
2022-09-15T18:48:22.297Z,2.10
2022-09-15T18:50:49.456Z,1.50
2022-09-15T18:53:16.693Z,1.70
2022-09-15T18:55:43.868Z,2.20
2022-09-15T18:58:11.950Z,2.37
2022-09-15T19:00:39.787Z,1.80
2022-09-15T19:03:09.654Z,2.33
2022-09-15T19:05:37.669Z,2.20
2022-09-15T19:08:04.948Z,2.90
2022-09-15T19:10:32.619Z,3.00
2022-09-15T19:12:59.650Z,2.93
2022-09-15T19:15:29.363Z,2.20
2022-09-15T19:17:56.539Z,2.90
2022-09-15T19:20:23.692Z,3.27
2022-09-15T19:22:51.760Z,2.60
2022-09-15T19:25:19.210Z,2.80
2022-09-15T19:27:47.934Z,3.03
2022-09-15T19:30:15.399Z,2.93
2022-09-15T19:32:43.228Z,2.87
2022-09-15T19:35:11.405Z,3.30
2022-09-15T19:37:41.026Z,3.50
2022-09-15T19:40:11.006Z,3.00
2022-09-15T19:42:39.724Z,3.37
2022-09-15T19:45:08.159Z,3.47
2022-09-15T19:47:35.568Z,3.77
2022-09-15T19:50:03.382Z,2.80
2022-09-15T19:52:30.496Z,3.37
2022-09-15T19:54:57.701Z,3.70
2022-09-15T19:57:25.101Z,3.93
2022-09-15T19:59:52.436Z,3.87
2022-09-15T20:02:20.059Z,3.63
2022-09-15T20:07:33.093Z,4.50
2022-09-15T20:10:00.087Z,3.87
2022-09-15T20:12:27.087Z,3.00
2022-09-15T20:14:54.310Z,4.17
2022-09-15T20:17:21.315Z,4.00
2022-09-15T20:19:48.598Z,4.10
2022-09-15T20:22:15.620Z,4.30
2022-09-15T20:24:42.672Z,4.00
2022-09-15T20:27:09.703Z,4.70
2022-09-15T20:29:36.735Z,5.83
2022-09-15T20:32:04.077Z,5.00
2022-09-15T20:34:31.092Z,4.20
2022-09-15T20:36:58.137Z,5.70
2022-09-15T20:39:25.925Z,5.77
2022-09-15T20:41:52.997Z,4.90
2022-09-15T20:44:20.215Z,4.87
2022-09-15T20:46:47.227Z,6.33
2022-09-15T20:49:14.407Z,4.80
2022-09-15T20:51:41.450Z,5.00
2022-09-15T20:54:09.632Z,5.50
2022-09-15T20:56:36.823Z,6.87
2022-09-15T20:59:05.421Z,7.30
2022-09-15T21:01:34.946Z,6.37
2022-09-15T21:04:03.618Z,7.00
2022-09-15T21:06:31.703Z,6.00
2022-09-15T21:08:59.237Z,5.40
2022-09-15T21:11:27.908Z,7.37
2022-09-15T21:13:55.909Z,5.67
2022-09-15T21:16:24.663Z,6.83
2022-09-15T21:18:52.554Z,6.63
2022-09-15T21:21:24.902Z,8.60
2022-09-15T21:23:53.450Z,6.90
2022-09-15T21:26:25.589Z,7.70
2022-09-15T21:28:53.805Z,7.70
2022-09-15T21:31:22.792Z,7.47
2022-09-15T21:33:50.685Z,7.30
2022-09-15T21:36:19.837Z,7.60
2022-09-15T21:38:47.511Z,7.63
2022-09-15T21:41:16.284Z,7.03
2022-09-15T21:43:44.682Z,8.43
2022-09-15T21:46:13.465Z,10.27
2022-09-15T21:48:41.306Z,9.77
2022-09-15T21:51:09.188Z,9.00
2022-09-15T21:53:44.812Z,10.57
2022-09-15T21:56:13.727Z,11.23
2022-09-15T21:58:43.178Z,12.13
2022-09-15T22:01:12.401Z,11.93
2022-09-15T22:03:43.239Z,15.23
2022-09-15T22:06:11.532Z,14.07
2022-09-15T22:08:42.205Z,12.47
2022-09-15T22:11:10.158Z,11.60
2022-09-15T22:13:40.561Z,10.80
2022-09-15T22:16:18.437Z,11.00
2022-09-15T22:18:46.416Z,11.17
2022-09-15T22:21:21.324Z,10.73
2022-09-15T22:23:49.456Z,10.83
2022-09-15T22:26:21.432Z,10.87
2022-09-15T22:28:49.511Z,11.10
2022-09-15T22:31:18.437Z,11.93
2022-09-15T22:33:45.976Z,10.50
2022-09-15T22:36:14.149Z,9.03
2022-09-15T22:38:41.600Z,7.23
2022-09-15T22:41:12.085Z,8.30
2022-09-15T22:43:40.042Z,6.00
2022-09-15T22:46:07.617Z,6.20
2022-09-15T22:48:38.506Z,5.70
2022-09-15T22:51:08.516Z,6.80
2022-09-15T22:53:36.057Z,5.87
2022-09-15T22:56:07.646Z,5.43
2022-09-15T22:58:35.870Z,6.80
2022-09-15T23:01:07.502Z,5.20
2022-09-15T23:03:34.967Z,5.30
2022-09-15T23:06:03.341Z,7.07
2022-09-15T23:08:31.780Z,5.13
2022-09-15T23:11:17.497Z,5.03
2022-09-15T23:13:45.202Z,5.30
2022-09-15T23:16:12.794Z,5.90
2022-09-15T23:18:40.262Z,6.13
2022-09-15T23:21:09.032Z,4.80
2022-09-15T23:23:37.438Z,4.80
2022-09-15T23:26:05.906Z,6.53
2022-09-15T23:28:33.696Z,6.70
2022-09-15T23:31:01.330Z,6.40
2022-09-15T23:33:29.626Z,5.77
2022-09-15T23:35:59.166Z,6.47
2022-09-15T23:38:26.725Z,6.23
2022-09-15T23:40:54.201Z,6.60
2022-09-15T23:43:21.814Z,8.13
2022-09-15T23:45:51.211Z,7.60
2022-09-15T23:48:18.868Z,7.40
2022-09-15T23:50:46.439Z,7.60
2022-09-15T23:53:14.042Z,7.23
2022-09-15T23:55:41.490Z,7.87
2022-09-15T23:58:08.886Z,8.67
